createdAt,value
2022-12-26T09:31:24.217Z,98.80
2022-12-26T09:33:56.556Z,99.00
2022-12-26T09:36:26.216Z,98.90
2022-12-26T09:38:59.299Z,98.70
2022-12-26T09:41:38.157Z,98.80
2022-12-26T09:44:07.936Z,98.90
2022-12-26T09:46:59.245Z,98.50
2022-12-26T09:49:31.933Z,98.40
2022-12-26T09:52:03.407Z,98.20
2022-12-26T09:54:49.464Z,98.00
2022-12-26T09:57:36.827Z,97.80
2022-12-26T10:00:06.767Z,97.70
2022-12-26T10:02:39.619Z,97.60
2022-12-26T10:05:07.041Z,97.70
2022-12-26T10:07:42.745Z,97.90
2022-12-26T10:10:13.292Z,98.20
2022-12-26T10:13:00.895Z,98.10
2022-12-26T10:15:38.710Z,98.10
2022-12-26T10:18:26.314Z,97.90
2022-12-26T10:21:02.167Z,97.70
2022-12-26T10:23:39.727Z,97.60
2022-12-26T10:26:20.258Z,97.70
2022-12-26T10:28:53.751Z,97.70
2022-12-26T10:31:52.315Z,97.80
2022-12-26T10:34:29.882Z,97.90
2022-12-26T10:37:14.005Z,97.70
2022-12-26T10:39:51.201Z,97.60
2022-12-26T10:42:54.155Z,97.50
2022-12-26T10:45:42.122Z,97.40
2022-12-26T10:48:13.191Z,97.50
2022-12-26T10:50:44.682Z,97.10
2022-12-26T10:53:13.461Z,97.10
2022-12-26T10:55:40.321Z,97.00
2022-12-26T10:58:32.637Z,97.00
2022-12-26T11:01:27.275Z,97.10
2022-12-26T11:04:05.884Z,97.10
2022-12-26T11:06:38.063Z,96.90
2022-12-26T11:09:06.383Z,96.90
2022-12-26T11:11:47.592Z,97.10
2022-12-26T11:14:39.813Z,97.00
2022-12-26T11:17:13.879Z,96.80
2022-12-26T11:19:44.365Z,96.90
2022-12-26T11:22:23.827Z,96.80
2022-12-26T11:25:24.351Z,96.90
2022-12-26T11:27:56.467Z,96.90
2022-12-26T11:30:29.948Z,97.00
2022-12-26T11:33:25.993Z,96.90
2022-12-26T11:36:10.539Z,96.90
2022-12-26T11:38:59.768Z,96.90
2022-12-26T11:41:32.460Z,96.70
2022-12-26T11:44:14.175Z,97.00
2022-12-26T11:47:12.365Z,97.10
2022-12-26T11:49:39.173Z,97.10
2022-12-26T11:52:34.087Z,97.10
2022-12-26T11:55:01.758Z,97.00
2022-12-26T11:57:31.846Z,96.80
2022-12-26T12:00:24.575Z,96.90
2022-12-26T12:02:51.729Z,96.90
2022-12-26T12:05:33.037Z,96.70
2022-12-26T12:08:11.910Z,96.50
2022-12-26T12:11:05.979Z,96.60
2022-12-26T12:13:42.120Z,96.60
2022-12-26T12:16:27.795Z,96.60
2022-12-26T12:19:16.437Z,96.60
2022-12-26T12:22:01.412Z,98.10
2022-12-26T12:24:48.879Z,96.50
2022-12-26T12:27:25.551Z,96.40
2022-12-26T12:30:13.763Z,97.90
2022-12-26T12:32:47.766Z,96.40
2022-12-26T12:35:26.202Z,96.20
2022-12-26T12:38:13.810Z,96.00
2022-12-26T12:40:40.552Z,96.10
2022-12-26T12:43:42.753Z,95.70
2022-12-26T12:46:46.536Z,96.00
2022-12-26T12:49:40.455Z,95.90
2022-12-26T12:52:45.808Z,95.90
2022-12-26T12:55:51.819Z,96.10
2022-12-26T12:58:41.812Z,95.80
2022-12-26T13:01:15.756Z,95.80
2022-12-26T13:03:54.292Z,95.90
2022-12-26T13:06:29.319Z,95.90
2022-12-26T13:09:02.546Z,95.80
2022-12-26T13:11:33.893Z,95.70
2022-12-26T13:14:12.906Z,95.60
2022-12-26T13:16:43.734Z,95.50
2022-12-26T13:19:25.550Z,95.30
2022-12-26T13:21:57.549Z,95.40
2022-12-26T13:24:36.051Z,95.30
2022-12-26T13:27:19.655Z,95.30
2022-12-26T13:29:50.718Z,95.70
2022-12-26T13:32:26.596Z,95.40
2022-12-26T13:34:56.659Z,95.40
2022-12-26T13:37:38.217Z,95.50
2022-12-26T13:40:20.337Z,95.50
2022-12-26T13:43:36.064Z,95.70
2022-12-26T13:46:03.064Z,95.40
2022-12-26T13:48:31.519Z,95.40
2022-12-26T13:51:00.436Z,98.50
2022-12-26T13:53:40.822Z,97.10
2022-12-26T13:56:19.807Z,95.30
2022-12-26T13:58:49.914Z,98.00
2022-12-26T14:01:28.079Z,99.90
2022-12-26T14:04:17.042Z,99.30
2022-12-26T14:07:21.690Z,95.00
2022-12-26T14:09:55.810Z,94.50
2022-12-26T14:12:42.420Z,94.70
2022-12-26T14:15:28.390Z,94.80
2022-12-26T14:18:29.150Z,94.80
2022-12-26T14:21:23.777Z,95.00
2022-12-26T14:24:17.920Z,95.10
2022-12-26T14:26:57.385Z,95.00
2022-12-26T14:29:48.793Z,95.00
2022-12-26T14:32:44.206Z,95.00
2022-12-26T14:35:22.364Z,95.20
2022-12-26T14:37:58.818Z,95.40
2022-12-26T14:40:34.315Z,95.40
2022-12-26T14:43:10.397Z,95.40
2022-12-26T14:45:37.354Z,95.50
2022-12-26T14:48:24.241Z,95.50
2022-12-26T14:51:03.177Z,95.70
2022-12-26T14:53:34.783Z,95.90
2022-12-26T14:56:20.516Z,96.20
2022-12-26T14:58:48.194Z,96.20
2022-12-26T15:01:18.309Z,96.40
2022-12-26T15:04:00.057Z,96.10
2022-12-26T15:06:55.156Z,98.20
2022-12-26T15:09:59.351Z,99.60
2022-12-26T15:12:45.564Z,99.90
2022-12-26T15:15:33.301Z,99.70
2022-12-26T15:18:35.266Z,99.90
2022-12-26T15:21:31.179Z,95.20
2022-12-26T15:24:16.848Z,95.10
2022-12-26T15:26:43.689Z,95.10
2022-12-26T15:29:36.595Z,95.40
2022-12-26T15:32:24.360Z,95.60
2022-12-26T15:34:58.443Z,95.60
2022-12-26T15:37:55.059Z,96.90
2022-12-26T15:40:32.865Z,95.80
2022-12-26T15:43:35.323Z,96.00
2022-12-26T15:46:22.325Z,98.00
2022-12-26T15:49:04.036Z,99.90
2022-12-26T15:51:55.841Z,99.20
2022-12-26T15:54:38.537Z,95.90
2022-12-26T15:57:24.334Z,95.40
2022-12-26T15:59:53.946Z,95.80
2022-12-26T16:02:26.651Z,96.00
2022-12-26T16:05:13.630Z,96.00
2022-12-26T16:08:08.973Z,96.10
2022-12-26T16:10:36.870Z,96.30
2022-12-26T16:13:12.476Z,96.20
2022-12-26T16:15:59.411Z,95.80
2022-12-26T16:18:28.417Z,96.00
2022-12-26T16:21:17.196Z,95.90
2022-12-26T16:23:46.341Z,95.70
2022-12-26T16:26:24.031Z,95.90
2022-12-26T16:28:51.747Z,96.40
2022-12-26T16:31:25.351Z,96.50
2022-12-26T16:33:54.149Z,96.10
2022-12-26T16:36:29.484Z,96.30
2022-12-26T16:38:56.539Z,96.00
2022-12-26T16:41:30.805Z,95.90
2022-12-26T16:44:18.299Z,95.70
2022-12-26T16:46:45.496Z,97.70
2022-12-26T16:49:12.629Z,96.30
2022-12-26T16:51:49.345Z,96.20
2022-12-26T16:54:22.645Z,96.10
2022-12-26T16:57:06.089Z,96.10
2022-12-26T16:59:55.300Z,96.00
2022-12-26T17:02:30.663Z,95.60
2022-12-26T17:05:05.521Z,95.30
2022-12-26T17:07:36.526Z,95.20
2022-12-26T17:10:07.014Z,95.50
2022-12-26T17:12:39.859Z,95.50
2022-12-26T17:15:07.879Z,95.30
2022-12-26T17:17:37.636Z,95.20
2022-12-26T17:20:22.550Z,95.40
2022-12-26T17:22:54.381Z,96.00
2022-12-26T17:25:29.538Z,96.00
2022-12-26T17:28:08.404Z,95.80
2022-12-26T17:30:43.323Z,95.80
2022-12-26T17:33:27.988Z,99.10
2022-12-26T17:38:51.077Z,96.10
2022-12-26T17:41:18.718Z,95.80
2022-12-26T17:43:46.722Z,96.10
2022-12-26T17:46:16.228Z,96.60
2022-12-26T17:48:44.432Z,96.30
2022-12-26T17:51:17.536Z,96.40
2022-12-26T17:53:50.194Z,96.30
2022-12-26T17:56:19.927Z,96.20
2022-12-26T17:58:47.788Z,96.60
2022-12-26T18:01:20.769Z,96.20
2022-12-26T18:03:48.690Z,96.30
2022-12-26T18:06:17.170Z,96.60
2022-12-26T18:08:45.057Z,96.30
2022-12-26T18:11:14.050Z,95.90
2022-12-26T18:13:41.769Z,95.70
2022-12-26T18:16:15.124Z,95.70
2022-12-26T18:18:44.533Z,95.70
2022-12-26T18:21:18.570Z,95.50
2022-12-26T18:23:45.569Z,95.50
2022-12-26T18:26:27.598Z,95.80
2022-12-26T18:28:54.660Z,96.20
2022-12-26T18:31:21.674Z,96.20
2022-12-26T18:33:48.555Z,96.00
2022-12-26T18:36:17.149Z,95.80
2022-12-26T18:38:44.269Z,95.80
2022-12-26T18:41:22.313Z,95.70
2022-12-26T18:43:49.204Z,95.50
2022-12-26T18:46:23.960Z,95.70
2022-12-26T18:48:53.764Z,95.80
2022-12-26T18:51:21.231Z,95.60
2022-12-26T18:53:48.256Z,95.40
2022-12-26T18:56:18.688Z,95.50
2022-12-26T18:58:46.510Z,95.60
2022-12-26T19:01:15.360Z,95.40
2022-12-26T19:03:43.265Z,95.70
2022-12-26T19:06:25.548Z,95.70
2022-12-26T19:08:52.679Z,95.60
2022-12-26T19:11:20.154Z,95.60
2022-12-26T19:13:47.562Z,95.60
2022-12-26T19:16:15.785Z,95.80
2022-12-26T19:18:42.627Z,96.10
2022-12-26T19:21:13.657Z,96.20
2022-12-26T19:23:40.943Z,96.30
2022-12-26T19:26:13.119Z,96.30
2022-12-26T19:28:40.097Z,96.40
2022-12-26T19:31:08.244Z,96.30
2022-12-26T19:33:36.306Z,96.30
2022-12-26T19:36:03.592Z,96.50
2022-12-26T19:38:30.434Z,96.50
2022-12-26T19:41:15.548Z,96.30
2022-12-26T19:43:43.088Z,96.00
2022-12-26T19:46:12.767Z,96.10
2022-12-26T19:48:39.797Z,95.80
2022-12-26T19:51:12.565Z,95.70
2022-12-26T19:53:41.540Z,95.80
2022-12-26T19:56:14.554Z,95.80
2022-12-26T19:58:42.300Z,95.70
2022-12-26T20:01:11.644Z,95.60
2022-12-26T20:03:39.799Z,95.50
2022-12-26T20:06:16.132Z,95.50
2022-12-26T20:08:44.362Z,95.50
2022-12-26T20:11:15.185Z,95.80
2022-12-26T20:13:43.893Z,95.50
2022-12-26T20:16:37.293Z,95.50
2022-12-26T20:19:00.749Z,95.70
2022-12-26T20:21:30.562Z,95.80
2022-12-26T20:24:01.807Z,95.60
2022-12-26T20:26:29.327Z,95.70
2022-12-26T20:29:01.818Z,95.80
2022-12-26T20:31:31.638Z,95.70
2022-12-26T20:33:59.365Z,95.80
2022-12-26T20:36:29.592Z,95.60
2022-12-26T20:38:59.237Z,95.60
2022-12-26T20:41:27.444Z,95.50
2022-12-26T20:43:54.870Z,95.90
2022-12-26T20:46:24.102Z,95.70
2022-12-26T20:48:53.549Z,95.80
2022-12-26T20:51:23.889Z,95.90
2022-12-26T20:53:52.116Z,95.60
2022-12-26T20:56:19.923Z,95.50
2022-12-26T20:58:47.035Z,95.90
2022-12-26T21:01:19.935Z,95.90
2022-12-26T21:03:48.162Z,96.10
2022-12-26T21:06:18.425Z,96.00
2022-12-26T21:08:47.039Z,95.50
2022-12-26T21:11:20.126Z,95.30
2022-12-26T21:13:48.375Z,95.40
2022-12-26T21:16:25.211Z,95.60
2022-12-26T21:18:52.547Z,95.90
2022-12-26T21:21:23.128Z,95.90
2022-12-26T21:23:55.084Z,96.10
2022-12-26T21:26:21.888Z,96.10
2022-12-26T21:28:49.958Z,96.00
2022-12-26T21:31:18.688Z,95.70
2022-12-26T21:33:45.578Z,95.70
2022-12-26T21:36:13.937Z,95.60
2022-12-26T21:38:41.598Z,95.50
2022-12-26T21:41:10.245Z,95.50
2022-12-26T21:43:37.369Z,96.00
2022-12-26T21:46:09.928Z,95.90
2022-12-26T21:48:37.020Z,95.80
2022-12-26T21:51:08.538Z,95.70
2022-12-26T21:53:35.794Z,95.80
2022-12-26T21:56:09.607Z,96.10
2022-12-26T21:58:58.507Z,96.00
2022-12-26T22:01:26.437Z,95.70
2022-12-26T22:04:12.831Z,95.80
2022-12-26T22:06:42.665Z,95.80
2022-12-26T22:09:10.077Z,95.90
2022-12-26T22:11:56.037Z,96.00
2022-12-26T22:14:23.077Z,95.90
2022-12-26T22:16:53.752Z,95.70
2022-12-26T22:19:20.904Z,95.40
